Time;durP1;ratioP1;P1;durP2;ratioP2;P2;SDS_P1;SDS_P2;PMS_P1;PMS_P2;Temp;Humidity;BMP_temperature;BMP_pressure;BME280_temperature;BME280_humidity;BME280_pressure;Samples;Min_cycle;Max_cycle;Signal;HPM_P1;HPM_P2
2020/12/14 00:00:19;;;;;;;39.88;19.32;;;;;;;2.60;82.49;100770.59;1739417;81;25916;-78
2020/12/14 00:02:48;;;;;;;38.30;19.00;;;;;;;2.61;82.48;100766.16;1723983;80;25823;-78
2020/12/14 00:05:16;;;;;;;41.00;19.02;;;;;;;2.63;82.46;100765.53;1711275;80;25741;-78
2020/12/14 00:07:44;;;;;;;39.55;20.05;;;;;;;2.65;82.45;100764.91;1757561;80;26415;-78
2020/12/14 00:10:11;;;;;;;41.23;20.02;;;;;;;2.65;82.41;100764.41;1735497;81;27307;-79
2020/12/14 00:12:38;;;;;;;43.85;22.27;;;;;;;2.68;82.38;100765.95;1726455;81;26285;-78
2020/12/14 00:15:06;;;;;;;55.92;25.48;;;;;;;2.68;82.37;100760.19;1749180;80;25786;-78
2020/12/14 00:17:33;;;;;;;55.63;22.98;;;;;;;2.67;82.19;100757.20;1766410;80;26114;-78
2020/12/14 00:20:04;;;;;;;46.98;21.37;;;;;;;2.67;82.28;100764.30;1733225;81;25836;-78
2020/12/14 00:22:35;;;;;;;44.33;22.52;;;;;;;2.66;82.27;100768.73;1736787;80;28436;-78
2020/12/14 00:25:03;;;;;;;41.40;20.40;;;;;;;2.65;82.34;100775.49;1750035;80;25972;-78
2020/12/14 00:27:31;;;;;;;45.63;20.62;;;;;;;2.66;82.38;100772.70;1741818;80;25848;-78
2020/12/14 00:29:58;;;;;;;38.50;19.73;;;;;;;2.68;82.41;100769.44;1739053;80;26636;-78
2020/12/14 00:32:26;;;;;;;35.52;18.50;;;;;;;2.71;82.37;100764.38;1748165;80;25816;-78
2020/12/14 00:34:54;;;;;;;42.80;20.70;;;;;;;2.70;82.32;100771.95;1761570;80;27550;-78
2020/12/14 00:37:21;;;;;;;40.30;20.23;;;;;;;2.70;82.41;100779.87;1758781;80;25796;-78
2020/12/14 00:39:48;;;;;;;42.58;21.37;;;;;;;2.68;82.29;100777.38;1742377;80;25799;-77
2020/12/14 00:42:16;;;;;;;44.10;22.00;;;;;;;2.68;82.32;100777.85;1743374;81;26100;-78
2020/12/14 00:44:43;;;;;;;42.38;20.68;;;;;;;2.70;82.35;100779.41;1741647;81;25469;-78
2020/12/14 00:47:10;;;;;;;41.00;20.27;;;;;;;2.69;82.30;100781.71;1735669;80;27529;-78
2020/12/14 00:49:37;;;;;;;44.58;21.95;;;;;;;2.69;82.39;100781.71;1734217;81;26205;-77
2020/12/14 00:52:05;;;;;;;42.45;22.85;;;;;;;2.71;82.36;100786.86;1726150;80;26496;-78
2020/12/14 00:54:33;;;;;;;49.15;23.52;;;;;;;2.73;82.40;100791.53;1723529;81;25820;-78
2020/12/14 00:57:01;;;;;;;57.58;28.38;;;;;;;2.72;82.37;100791.16;1738190;80;25827;-78
2020/12/14 00:59:29;;;;;;;42.70;20.70;;;;;;;2.70;82.27;100790.46;1740341;81;27663;-78
2020/12/14 01:01:56;;;;;;;42.00;20.30;;;;;;;2.62;82.24;100800.39;1727843;81;26168;-78
2020/12/14 01:04:24;;;;;;;38.35;19.42;;;;;;;2.60;82.38;100798.36;1738400;81;25921;-78
2020/12/14 01:06:53;;;;;;;42.48;22.25;;;;;;;2.61;82.47;100799.20;1747978;80;25739;-77
2020/12/14 01:09:21;;;;;;;40.40;19.02;;;;;;;2.62;82.55;100803.51;1741685;80;26029;-77
2020/12/14 01:11:48;;;;;;;42.53;20.05;;;;;;;2.64;82.56;100802.41;1710397;80;27216;-78
2020/12/14 01:14:16;;;;;;;44.45;22.25;;;;;;;2.60;82.47;100802.33;1746531;81;26451;-78
2020/12/14 01:16:48;;;;;;;43.92;21.97;;;;;;;2.59;82.55;100798.50;1728757;80;26360;-78
2020/12/14 01:19:15;;;;;;;42.27;20.35;;;;;;;2.61;82.63;100797.38;1731257;81;26421;-78
2020/12/14 01:21:42;;;;;;;45.08;21.55;;;;;;;2.60;82.54;100798.36;1742005;80;26460;-78
2020/12/14 01:24:10;;;;;;;46.42;22.90;;;;;;;2.59;82.65;100796.67;1750997;81;27519;-78
2020/12/14 01:26:37;;;;;;;47.98;22.55;;;;;;;2.60;82.67;100802.80;1738004;80;26399;-78
2020/12/14 01:29:04;;;;;;;47.20;22.98;;;;;;;2.62;82.74;100807.48;1769745;80;25759;-78
2020/12/14 01:31:32;;;;;;;44.75;22.62;;;;;;;2.61;82.66;100806.63;1752564;80;25890;-77
2020/12/14 01:33:59;;;;;;;44.00;20.45;;;;;;;2.61;82.71;100809.27;1738088;80;25826;-78
2020/12/14 01:36:27;;;;;;;47.50;22.25;;;;;;;2.63;82.80;100811.30;1745133;79;27589;-78
2020/12/14 01:38:54;;;;;;;44.10;20.48;;;;;;;2.67;82.78;100807.94;1708972;81;25808;-78
2020/12/14 01:41:21;;;;;;;42.88;21.80;;;;;;;2.68;82.68;100821.02;1684143;81;25879;-78
2020/12/14 01:43:49;;;;;;;49.27;21.95;;;;;;;2.67;82.66;100823.80;1719284;81;26513;-77
2020/12/14 01:46:21;;;;;;;41.65;21.35;;;;;;;2.68;82.70;100824.13;1713668;82;25976;-78
2020/12/14 01:48:49;;;;;;;41.08;19.32;;;;;;;2.67;82.67;100821.16;1715166;82;28750;-78
2020/12/14 01:51:17;;;;;;;43.73;21.77;;;;;;;2.67;82.71;100816.71;1720580;81;25742;-78
2020/12/14 01:53:44;;;;;;;44.60;21.35;;;;;;;2.68;82.79;100823.66;1666919;84;25906;-78
2020/12/14 01:56:11;;;;;;;42.20;20.43;;;;;;;2.68;82.71;100824.13;1729294;81;25775;-78
2020/12/14 01:58:39;;;;;;;42.38;20.70;;;;;;;2.70;82.72;100828.81;1734038;81;26129;-78
2020/12/14 02:01:07;;;;;;;45.90;21.05;;;;;;;2.71;82.77;100820.77;1718792;83;27608;-78
2020/12/14 02:03:34;;;;;;;41.90;20.65;;;;;;;2.71;82.76;100819.92;1720222;81;26570;-78
2020/12/14 02:06:01;;;;;;;36.20;19.70;;;;;;;2.69;82.73;100821.38;1732491;80;25778;-78
2020/12/14 02:08:29;;;;;;;43.70;19.62;;;;;;;2.69;82.78;100820.06;1689655;83;25771;-78
2020/12/14 02:10:56;;;;;;;35.63;18.15;;;;;;;2.67;82.74;100817.19;1709325;83;26154;-78
2020/12/14 02:13:27;;;;;;;40.90;19.95;;;;;;;2.70;82.74;100821.72;1712330;81;28299;-77
2020/12/14 02:15:55;;;;;;;39.38;19.48;;;;;;;2.72;82.69;100818.94;1702708;81;25856;-78
2020/12/14 02:18:22;;;;;;;43.95;20.23;;;;;;;2.71;82.68;100822.09;1727368;80;25740;-77
2020/12/14 02:20:50;;;;;;;43.78;21.52;;;;;;;2.72;82.61;100823.75;1711805;80;25792;-78
2020/12/14 02:23:17;;;;;;;39.25;20.30;;;;;;;2.75;82.58;100822.66;1757216;80;25811;-78
2020/12/14 02:25:45;;;;;;;43.92;21.52;;;;;;;2.75;82.58;100833.23;1726500;81;27321;-77
2020/12/14 02:28:12;;;;;;;36.45;19.35;;;;;;;2.77;82.59;100829.49;1723416;80;26107;-78
2020/12/14 02:30:40;;;;;;;39.48;19.65;;;;;;;2.80;82.58;100828.39;1724243;81;25836;-78
2020/12/14 02:33:07;;;;;;;40.55;20.20;;;;;;;2.81;82.51;100833.55;1745952;81;25767;-77
2020/12/14 02:35:34;;;;;;;33.35;17.65;;;;;;;2.80;82.46;100835.83;1733923;81;25863;-78
2020/12/14 02:38:02;;;;;;;39.03;19.52;;;;;;;2.81;82.51;100832.23;1729503;81;27549;-78
2020/12/14 02:40:29;;;;;;;34.23;17.32;;;;;;;2.81;82.41;100828.25;1705599;81;26003;-78
2020/12/14 02:42:57;;;;;;;37.53;18.27;;;;;;;2.80;82.38;100830.53;1736560;81;25942;-78
2020/12/14 02:45:24;;;;;;;34.65;16.95;;;;;;;2.78;82.32;100831.66;1703131;81;25868;-77
2020/12/14 02:47:52;;;;;;;37.13;18.30;;;;;;;2.76;82.40;100825.16;1724650;82;25790;-78
2020/12/14 02:50:20;;;;;;;35.65;18.25;;;;;;;2.77;82.44;100824.20;1728621;81;27557;-78
2020/12/14 02:52:47;;;;;;;33.92;18.45;;;;;;;2.80;82.50;100821.78;1742380;81;25796;-78
2020/12/14 02:55:14;;;;;;;34.50;17.02;;;;;;;2.82;82.46;100826.45;1732341;81;25834;-78
2020/12/14 02:57:42;;;;;;;35.03;18.23;;;;;;;2.82;82.35;100831.23;1710761;81;25897;-78
2020/12/14 03:00:09;;;;;;;33.48;17.17;;;;;;;2.80;82.30;100838.47;1723997;81;25887;-78
2020/12/14 03:02:37;;;;;;;33.30;17.77;;;;;;;2.80;82.22;100836.33;1735004;82;26687;-77
2020/12/14 03:05:04;;;;;;;33.15;16.97;;;;;;;2.75;82.15;100833.23;1730930;82;26125;-78
2020/12/14 03:07:31;;;;;;;33.53;16.82;;;;;;;2.71;82.32;100834.47;1697834;82;25730;-78
2020/12/14 03:09:59;;;;;;;40.08;17.50;;;;;;;2.73;82.51;100837.34;1722831;81;26527;-78
2020/12/14 03:12:26;;;;;;;60.90;23.30;;;;;;;2.75;82.49;100837.20;1707362;81;26508;-78
2020/12/14 03:14:53;;;;;;;49.23;21.70;;;;;;;2.74;82.49;100850.90;1714942;81;27119;-78
2020/12/14 03:17:21;;;;;;;49.88;21.07;;;;;;;2.75;82.39;100851.27;1736539;81;25950;-77
2020/12/14 03:19:48;;;;;;;47.15;19.82;;;;;;;2.75;82.39;100847.78;1737441;81;26381;-78
2020/12/14 03:22:16;;;;;;;40.08;19.82;;;;;;;2.71;82.29;100852.98;1731220;81;25922;-78
2020/12/14 03:24:43;;;;;;;35.03;18.77;;;;;;;2.71;82.46;100849.86;1721341;80;26369;-78
2020/12/14 03:27:12;;;;;;;35.75;18.57;;;;;;;2.73;82.41;100855.86;1719907;81;27544;-78
2020/12/14 03:29:39;;;;;;;36.90;19.05;;;;;;;2.73;82.40;100854.53;1687795;82;26178;-78
2020/12/14 03:32:07;;;;;;;38.33;17.42;;;;;;;2.72;82.36;100850.67;1731375;81;25945;-77
2020/12/14 03:34:34;;;;;;;41.90;18.92;;;;;;;2.71;82.49;100849.86;1709831;81;25747;-78
2020/12/14 03:37:01;;;;;;;42.85;19.75;;;;;;;2.72;82.56;100846.23;1730363;81;25882;-77
2020/12/14 03:39:29;;;;;;;37.38;17.98;;;;;;;2.74;82.45;100850.90;1687853;82;27555;-77
2020/12/14 03:41:56;;;;;;;35.15;16.93;;;;;;;2.68;82.29;100848.78;1729624;81;25815;-78
2020/12/14 03:44:23;;;;;;;33.55;16.90;;;;;;;2.60;82.30;100847.28;1735100;81;26312;-78
2020/12/14 03:46:51;;;;;;;33.15;17.02;;;;;;;2.54;82.43;100843.84;1717509;81;26416;-77
2020/12/14 03:49:19;;;;;;;35.52;17.75;;;;;;;2.50;82.67;100838.45;1727126;81;25808;-78
2020/12/14 03:51:46;;;;;;;43.40;22.42;;;;;;;2.53;82.81;100843.47;1737049;81;27533;-78
2020/12/14 03:54:13;;;;;;;44.55;22.70;;;;;;;2.56;82.89;100839.26;1705119;81;25864;-78
2020/12/14 03:56:41;;;;;;;94.92;47.10;;;;;;;2.59;82.91;100840.30;1691576;82;25866;-78
2020/12/14 03:59:08;;;;;;;77.62;37.95;;;;;;;2.62;82.90;100850.63;1721223;81;25838;-78
2020/12/14 04:01:35;;;;;;;65.75;30.32;;;;;;;2.61;82.81;100846.30;1690727;81;25854;-78
2020/12/14 04:04:03;;;;;;;61.45;28.12;;;;;;;2.60;82.85;100843.31;1701237;83;27556;-78
2020/12/14 04:06:30;;;;;;;52.55;26.50;;;;;;;2.61;82.89;100841.52;1715147;82;26197;-79
2020/12/14 04:08:58;;;;;;;49.90;24.65;;;;;;;2.64;82.88;100840.77;1691354;81;25761;-79
2020/12/14 04:11:25;;;;;;;50.50;24.67;;;;;;;2.64;82.80;100846.05;1690969;83;25920;-78
2020/12/14 04:13:52;;;;;;;39.90;20.62;;;;;;;2.65;82.89;100845.58;1716542;81;25842;-79
2020/12/14 04:16:20;;;;;;;41.53;20.62;;;;;;;2.63;82.71;100854.13;1732216;81;28592;-78
2020/12/14 04:18:49;;;;;;;39.98;19.15;;;;;;;2.57;82.66;100856.78;1724488;82;25871;-79
2020/12/14 04:21:18;;;;;;;36.68;19.62;;;;;;;2.53;82.81;100847.91;1740728;81;25823;-79
2020/12/14 04:23:46;;;;;;;41.67;21.37;;;;;;;2.56;82.91;100855.59;1744102;81;25782;-79
2020/12/14 04:26:16;;;;;;;43.13;23.98;;;;;;;2.57;82.97;100856.78;1708558;81;25812;-79
2020/12/14 04:28:44;;;;;;;43.85;21.95;;;;;;;2.60;82.93;100852.57;1716826;81;33036;-79
2020/12/14 04:31:11;;;;;;;37.33;19.30;;;;;;;2.57;82.78;100852.81;1738904;81;25823;-79
2020/12/14 04:33:41;;;;;;;44.67;21.17;;;;;;;2.56;82.74;100852.95;1705553;81;25880;-78
2020/12/14 04:36:08;;;;;;;40.10;21.50;;;;;;;2.51;82.69;100854.66;1726561;81;25900;-78
2020/12/14 04:38:35;;;;;;;35.28;17.02;;;;;;;2.51;82.78;100850.70;1718197;81;25858;-78
2020/12/14 04:41:04;;;;;;;39.35;18.02;;;;;;;2.51;82.69;100851.17;1707642;81;27558;-78
2020/12/14 04:43:31;;;;;;;38.35;17.35;;;;;;;2.46;82.70;100856.03;1741221;81;25757;-79
2020/12/14 04:46:06;;;;;;;37.78;18.23;;;;;;;2.41;82.69;100860.37;1694643;81;26376;-78
2020/12/14 04:48:34;;;;;;;38.53;19.67;;;;;;;2.40;82.96;100859.16;1714551;82;26432;-79
2020/12/14 04:51:01;;;;;;;39.48;20.82;;;;;;;2.43;83.11;100866.84;1730628;81;25769;-78
2020/12/14 04:53:29;;;;;;;39.63;20.05;;;;;;;2.46;83.13;100871.89;1713308;81;27531;-78
2020/12/14 04:55:58;;;;;;;37.53;18.55;;;;;;;2.50;83.12;100876.80;1732323;81;25727;-79
2020/12/14 04:58:25;;;;;;;45.95;22.15;;;;;;;2.50;83.05;100870.19;1716766;81;25826;-78
2020/12/14 05:00:52;;;;;;;49.03;24.27;;;;;;;2.49;83.07;100871.61;1738303;81;26484;-78
2020/12/14 05:03:20;;;;;;;54.85;27.25;;;;;;;2.50;83.12;100879.44;1713929;81;26037;-79
2020/12/14 05:05:57;;;;;;;62.05;29.57;;;;;;;2.52;83.14;100882.80;1686720;81;27601;-78
2020/12/14 05:08:26;;;;;;;45.85;23.05;;;;;;;2.57;83.18;100887.67;1715649;81;26146;-79
2020/12/14 05:10:54;;;;;;;49.83;23.67;;;;;;;2.56;82.90;100890.82;1724363;81;25815;-78
2020/12/14 05:13:28;;;;;;;42.10;21.33;;;;;;;2.56;82.99;100901.39;1712617;82;25889;-78
2020/12/14 05:15:56;;;;;;;44.18;22.20;;;;;;;2.56;82.91;100903.19;1668881;84;26054;-78
2020/12/14 05:18:23;;;;;;;49.33;21.65;;;;;;;2.55;82.98;100908.95;1704147;81;28446;-78
2020/12/14 05:21:03;;;;;;;44.33;22.40;;;;;;;2.57;82.96;100908.82;1689846;81;25903;-78
2020/12/14 05:23:33;;;;;;;37.03;19.50;;;;;;;2.57;82.98;100912.31;1714010;81;25932;-79
2020/12/14 05:26:07;;;;;;;43.68;20.43;;;;;;;2.57;82.91;100912.79;1686931;84;25843;-79
2020/12/14 05:28:35;;;;;;;40.95;20.82;;;;;;;2.57;82.86;100924.21;1702858;81;25535;-78
2020/12/14 05:31:03;;;;;;;38.75;19.85;;;;;;;2.55;82.89;100927.94;1718073;81;27293;-79
2020/12/14 05:33:32;;;;;;;44.20;20.90;;;;;;;2.52;82.93;100936.15;1695187;81;26135;-78
2020/12/14 05:35:59;;;;;;;40.43;19.35;;;;;;;2.50;83.01;100940.73;1689751;82;26419;-78
2020/12/14 05:38:31;;;;;;;39.53;20.23;;;;;;;2.52;83.08;100940.11;1727319;81;25811;-78
2020/12/14 05:41:05;;;;;;;38.90;18.25;;;;;;;2.52;83.11;100944.92;1733983;81;25418;-79
2020/12/14 05:43:34;;;;;;;38.13;18.32;;;;;;;2.54;83.12;100939.03;1729236;81;26666;-79
2020/12/14 05:46:15;;;;;;;31.73;16.55;;;;;;;2.58;83.10;100940.92;1713011;81;25765;-78
2020/12/14 05:48:44;;;;;;;39.23;18.70;;;;;;;2.59;83.08;100938.14;1723987;82;25886;-78
2020/12/14 05:51:13;;;;;;;33.78;17.15;;;;;;;2.59;83.07;100947.91;1725406;81;25944;-77
2020/12/14 05:53:54;;;;;;;35.63;18.87;;;;;;;2.61;83.12;100949.43;1716295;82;26162;-78
2020/12/14 05:56:25;;;;;;;34.98;18.35;;;;;;;2.64;83.10;100952.31;1714182;82;28490;-78
2020/12/14 05:58:55;;;;;;;37.05;18.77;;;;;;;2.60;83.04;100947.77;1744256;81;26604;-78
2020/12/14 06:01:23;;;;;;;41.98;19.17;;;;;;;2.62;83.08;100955.09;1717326;81;25906;-78
2020/12/14 06:03:52;;;;;;;40.70;21.27;;;;;;;2.64;83.11;100947.02;1689663;83;26033;-79
2020/12/14 06:06:21;;;;;;;42.55;20.68;;;;;;;2.66;83.16;100962.27;1683506;81;26081;-79
2020/12/14 06:08:53;;;;;;;43.55;19.77;;;;;;;2.65;83.09;100956.14;1701676;83;27612;-78
2020/12/14 06:11:23;;;;;;;43.55;20.52;;;;;;;2.65;83.09;100956.14;1757138;80;25875;-78
2020/12/14 06:14:01;;;;;;;42.35;20.15;;;;;;;2.66;83.14;100953.86;1696805;82;26573;-79
2020/12/14 06:16:39;;;;;;;43.08;20.27;;;;;;;2.69;83.17;100954.09;1703933;82;25708;-78
2020/12/14 06:19:06;;;;;;;44.65;19.55;;;;;;;2.72;83.16;100943.24;1738708;81;26007;-78
2020/12/14 06:21:45;;;;;;;42.25;20.72;;;;;;;2.73;83.10;100955.05;1724323;81;28350;-78
2020/12/14 06:24:22;;;;;;;42.62;20.75;;;;;;;2.72;83.07;100949.37;1736688;81;25871;-78
2020/12/14 06:26:51;;;;;;;44.35;20.80;;;;;;;2.71;83.07;100945.55;1714420;82;25921;-79
2020/12/14 06:29:34;;;;;;;42.55;21.70;;;;;;;2.73;83.07;100943.61;1716453;81;25836;-78
2020/12/14 06:32:03;;;;;;;39.67;20.12;;;;;;;2.72;82.99;100946.73;1741673;81;25795;-78
2020/12/14 06:34:37;;;;;;;36.98;18.67;;;;;;;2.72;82.91;100955.99;1703030;82;28868;-78
2020/12/14 06:37:04;;;;;;;36.17;19.02;;;;;;;2.73;82.99;100956.84;1742334;81;26177;-78
2020/12/14 06:39:37;;;;;;;39.33;19.23;;;;;;;2.74;82.99;100963.31;1713551;81;25788;-78
2020/12/14 06:42:13;;;;;;;35.55;17.62;;;;;;;2.75;82.94;100967.66;1720548;82;26316;-78
2020/12/14 06:44:49;;;;;;;35.35;17.50;;;;;;;2.76;82.95;100969.82;1740731;81;25466;-78
2020/12/14 06:47:19;;;;;;;35.65;18.55;;;;;;;2.76;82.92;100973.79;1742611;81;27545;-78
2020/12/14 06:49:48;;;;;;;38.60;19.82;;;;;;;2.75;82.86;100974.27;1719192;81;26549;-78
2020/12/14 06:52:35;;;;;;;32.83;17.95;;;;;;;2.75;82.84;100982.20;1720154;81;25760;-78
2020/12/14 06:55:04;;;;;;;31.15;17.23;;;;;;;2.75;82.86;100988.81;1687756;82;25563;-78
2020/12/14 06:57:39;;;;;;;35.35;18.85;;;;;;;2.74;82.93;100985.80;1705112;82;26118;-78
2020/12/14 07:00:08;;;;;;;36.90;18.50;;;;;;;2.76;82.96;100991.80;1693851;82;28511;-78
2020/12/14 07:02:39;;;;;;;33.33;17.75;;;;;;;2.79;82.96;101002.14;1717955;81;26446;-79
2020/12/14 07:05:33;;;;;;;35.10;19.00;;;;;;;2.82;82.97;100999.73;1712429;81;25880;-78
2020/12/14 07:08:01;;;;;;;43.70;20.35;;;;;;;2.81;82.94;101000.68;1717230;81;26094;-78
2020/12/14 07:10:30;;;;;;;41.05;21.35;;;;;;;2.82;82.91;100995.76;1720826;81;25605;-78
2020/12/14 07:12:59;;;;;;;32.45;18.20;;;;;;;2.81;82.86;100996.70;1707236;82;28298;-78
2020/12/14 07:15:30;;;;;;;35.90;18.75;;;;;;;2.79;82.84;100996.00;1728447;81;25808;-78
2020/12/14 07:18:10;;;;;;;35.33;17.35;;;;;;;2.79;82.86;100993.36;1719492;82;25812;-78
2020/12/14 07:20:56;;;;;;;34.33;18.05;;;;;;;2.80;82.91;100996.37;1708234;82;26506;-78
2020/12/14 07:23:26;;;;;;;36.50;19.23;;;;;;;2.80;82.86;100992.41;1718462;81;26536;-78
2020/12/14 07:25:55;;;;;;;42.03;20.12;;;;;;;2.80;82.91;100989.25;1694082;82;27657;-78
2020/12/14 07:28:45;;;;;;;43.85;22.05;;;;;;;2.81;82.89;100990.94;1714608;81;25850;-78
2020/12/14 07:31:19;;;;;;;47.83;23.05;;;;;;;2.82;82.96;100991.79;1708258;83;25718;-79
2020/12/14 07:33:59;;;;;;;48.60;22.58;;;;;;;2.82;82.92;100985.99;1728220;81;25899;-78
2020/12/14 07:36:28;;;;;;;44.85;24.67;;;;;;;2.85;82.92;100982.25;1729140;80;25844;-79
2020/12/14 07:38:58;;;;;;;39.83;21.80;;;;;;;2.86;82.93;100986.13;1724994;82;27668;-78
2020/12/14 07:41:27;;;;;;;42.17;21.40;;;;;;;2.86;82.95;100992.73;1733782;81;26131;-78
2020/12/14 07:43:57;;;;;;;42.08;21.87;;;;;;;2.86;82.92;100989.24;1719251;81;25423;-79
2020/12/14 07:46:33;;;;;;;37.25;18.90;;;;;;;2.88;82.96;100993.92;1710938;81;26465;-78
2020/12/14 07:49:12;;;;;;;34.98;18.55;;;;;;;2.91;83.00;100987.88;1727750;81;26751;-78
2020/12/14 07:51:43;;;;;;;36.40;18.40;;;;;;;2.92;82.91;100991.38;1711207;82;27670;-78
2020/12/14 07:54:15;;;;;;;39.92;18.95;;;;;;;2.92;82.88;100990.05;1724296;82;25665;-78
2020/12/14 07:56:55;;;;;;;35.55;17.75;;;;;;;2.91;82.95;100990.52;1731985;81;25954;-77
2020/12/14 07:59:25;;;;;;;32.45;18.10;;;;;;;2.92;82.92;100989.57;1724855;81;25847;-78
2020/12/14 08:02:06;;;;;;;34.18;17.67;;;;;;;2.97;82.90;100982.58;1794879;79;25749;-78
2020/12/14 08:04:34;;;;;;;39.83;19.62;;;;;;;2.95;83.01;100993.27;1735629;79;25784;-78
2020/12/14 08:07:03;;;;;;;38.38;20.17;;;;;;;2.94;82.82;100998.69;1748840;80;27466;-78
2020/12/14 08:09:40;;;;;;;41.53;20.52;;;;;;;2.91;82.70;101005.55;1701248;81;26092;-78
2020/12/14 08:12:10;;;;;;;40.52;20.92;;;;;;;2.89;82.79;101010.98;1707476;81;26119;-77
2020/12/14 08:14:38;;;;;;;38.13;20.23;;;;;;;2.89;82.86;101010.98;1715858;81;25891;-77
2020/12/14 08:17:12;;;;;;;43.50;21.82;;;;;;;2.89;82.84;101008.33;1693542;81;25919;-78
2020/12/14 08:19:41;;;;;;;48.42;24.40;;;;;;;2.91;82.91;101011.69;1750245;81;27527;-77
2020/12/14 08:22:12;;;;;;;42.80;20.97;;;;;;;2.93;82.83;101017.69;1681353;81;25878;-78
2020/12/14 08:27:24;;;;;;;46.50;24.75;;;;;;;2.95;82.77;101012.30;1795017;77;25818;-77
2020/12/14 08:30:06;;;;;;;44.90;24.50;;;;;;;2.90;82.82;101011.35;1725890;80;25837;-78
2020/12/14 08:32:35;;;;;;;42.20;21.50;;;;;;;2.91;82.96;101015.66;1708097;80;27375;-76
2020/12/14 08:35:21;;;;;;;45.98;24.18;;;;;;;2.96;83.00;101014.80;1724841;81;25980;-79
2020/12/14 08:38:04;;;;;;;43.85;21.52;;;;;;;3.03;82.83;101019.09;1816355;77;25678;-78
2020/12/14 08:40:34;;;;;;;41.75;23.45;;;;;;;2.96;82.72;101019.25;1769074;78;26469;-78
2020/12/14 08:43:14;;;;;;;48.23;24.37;;;;;;;2.97;82.79;101024.41;1757036;78;28286;-78
2020/12/14 08:46:15;;;;;;;46.88;23.40;;;;;;;2.97;82.65;101022.27;1786244;78;26071;-77
2020/12/14 08:48:54;;;;;;;45.58;23.75;;;;;;;2.98;82.76;101023.45;1759003;80;25898;-78
2020/12/14 08:51:28;;;;;;;45.23;23.18;;;;;;;2.98;82.80;101025.25;1791740;78;25842;-77
2020/12/14 08:54:17;;;;;;;44.80;23.47;;;;;;;3.01;82.82;101027.66;1729770;82;26223;-77
2020/12/14 08:56:46;;;;;;;42.60;23.75;;;;;;;3.03;82.85;101026.56;1722408;81;27546;-77
2020/12/14 08:59:19;;;;;;;40.03;22.45;;;;;;;3.07;82.74;101031.11;1690351;80;26420;-77
2020/12/14 09:02:02;;;;;;;43.95;21.17;;;;;;;3.05;82.63;101021.98;1700616;80;25984;-78
2020/12/14 09:04:39;;;;;;;39.30;20.65;;;;;;;3.04;82.50;101016.31;1696894;82;25879;-77
2020/12/14 09:07:07;;;;;;;40.83;19.73;;;;;;;3.03;82.49;101015.13;1720236;81;25957;-77
2020/12/14 09:09:38;;;;;;;43.23;21.70;;;;;;;3.01;82.40;101013.09;1681978;80;27103;-78
2020/12/14 09:12:13;;;;;;;41.42;21.02;;;;;;;3.03;82.50;101009.36;1704085;81;25836;-78
2020/12/14 09:14:40;;;;;;;40.23;22.95;;;;;;;3.04;82.36;101014.99;1731361;81;26445;-77
2020/12/14 09:17:18;;;;;;;41.85;20.82;;;;;;;3.06;82.41;101018.83;1730425;81;25864;-79
2020/12/14 09:19:51;;;;;;;43.95;21.35;;;;;;;3.07;82.43;101016.07;1697567;81;26196;-79
2020/12/14 09:22:22;;;;;;;40.40;21.52;;;;;;;3.09;82.27;101011.97;1714223;82;27528;-77
2020/12/14 09:24:50;;;;;;;43.17;22.25;;;;;;;3.10;82.32;101016.30;1681408;82;25860;-78
2020/12/14 09:27:21;;;;;;;43.95;21.75;;;;;;;3.09;82.18;101011.48;1736507;82;25947;-78
2020/12/14 09:29:48;;;;;;;;;;;;;;;3.13;82.27;101008.09;1682710;82;25806;-78
2020/12/14 09:32:17;;;;;;;40.78;20.90;;;;;;;3.14;82.13;101006.63;1742620;81;26061;-78
2020/12/14 09:34:44;;;;;;;39.90;20.10;;;;;;;3.13;82.30;101010.26;1693153;81;27324;-77
2020/12/14 09:37:12;;;;;;;42.93;21.02;;;;;;;3.13;82.00;101020.00;1706739;82;25889;-77
2020/12/14 09:39:41;;;;;;;36.33;20.70;;;;;;;3.11;82.03;101009.55;1664081;83;26631;-77
2020/12/14 09:42:08;;;;;;;37.03;20.50;;;;;;;3.13;82.00;101011.58;1682328;83;25853;-77
2020/12/14 09:44:36;;;;;;;39.18;21.40;;;;;;;3.15;81.93;101011.44;1685717;83;25813;-77
2020/12/14 09:47:09;;;;;;;34.55;18.55;;;;;;;3.14;81.88;101005.81;1688525;83;28945;-77
2020/12/14 09:49:39;;;;;;;36.35;19.77;;;;;;;3.14;81.79;101000.52;1698480;82;25879;-78
2020/12/14 09:52:08;;;;;;;40.40;21.33;;;;;;;3.14;81.90;101009.27;1724903;82;25816;-78
2020/12/14 09:54:36;;;;;;;38.88;18.05;;;;;;;3.14;81.87;101007.13;1714628;82;25904;-77
2020/12/14 09:57:03;;;;;;;34.35;18.67;;;;;;;3.13;81.82;101009.41;1677883;83;25912;-78
2020/12/14 09:59:32;;;;;;;34.83;18.73;;;;;;;3.13;81.92;101008.09;1699469;82;28518;-79
2020/12/14 10:02:00;;;;;;;32.93;19.12;;;;;;;3.13;81.99;101002.80;1699750;82;25901;-79
2020/12/14 10:04:27;;;;;;;38.17;19.62;;;;;;;3.16;81.88;101003.88;1700904;82;25836;-77
2020/12/14 10:06:57;;;;;;;37.20;19.45;;;;;;;3.19;81.75;101004.92;1702381;82;25717;-77
2020/12/14 10:09:24;;;;;;;37.95;20.12;;;;;;;3.19;81.80;100998.30;1699429;82;26286;-77
2020/12/14 10:11:57;;;;;;;40.67;21.95;;;;;;;3.21;81.84;101004.81;1690911;82;26757;-77
2020/12/14 10:14:25;;;;;;;35.63;19.60;;;;;;;3.24;81.93;101003.20;1684994;82;26381;-78
2020/12/14 10:16:52;;;;;;;31.93;18.30;;;;;;;3.26;81.92;101004.77;1685022;82;25797;-77
2020/12/14 10:19:20;;;;;;;40.75;21.20;;;;;;;3.29;81.79;100999.70;1703104;82;26521;-78
2020/12/14 10:21:47;;;;;;;35.08;20.32;;;;;;;3.35;81.85;100995.20;1693959;82;25373;-78
2020/12/14 10:24:15;;;;;;;37.45;20.62;;;;;;;3.37;81.85;100987.48;1689405;82;27385;-78
2020/12/14 10:26:42;;;;;;;37.25;20.35;;;;;;;3.42;81.82;100989.23;1700096;82;25801;-78
2020/12/14 10:29:09;;;;;;;34.98;19.62;;;;;;;3.46;81.74;100989.83;1695924;82;25491;-79
2020/12/14 10:31:37;;;;;;;37.38;20.00;;;;;;;3.47;81.60;100984.87;1689171;82;25828;-78
2020/12/14 10:34:04;;;;;;;42.08;21.27;;;;;;;3.46;81.49;100991.16;1677757;82;25899;-78
2020/12/14 10:36:31;;;;;;;40.38;19.35;;;;;;;3.46;81.40;100984.05;1686981;82;28439;-77
2020/12/14 10:38:59;;;;;;;40.73;21.77;;;;;;;3.45;81.43;100988.14;1697345;82;26008;-77
2020/12/14 10:41:26;;;;;;;35.45;21.30;;;;;;;3.46;81.50;100995.97;1674582;82;25753;-78
2020/12/14 10:43:53;;;;;;;37.05;18.87;;;;;;;3.49;81.46;100994.84;1668532;82;26043;-77
2020/12/14 10:46:25;;;;;;;39.38;20.57;;;;;;;3.52;81.37;100990.14;1693473;82;25887;-77
2020/12/14 10:48:52;;;;;;;34.18;19.50;;;;;;;3.53;81.45;100992.31;1689051;82;27624;-77
2020/12/14 10:51:20;;;;;;;37.00;21.00;;;;;;;3.56;81.50;100997.33;1697248;82;25830;-78
2020/12/14 10:53:47;;;;;;;39.15;19.95;;;;;;;3.58;81.39;100999.36;1646902;82;25824;-77
2020/12/14 10:56:16;;;;;;;39.73;22.70;;;;;;;3.59;81.29;100995.24;1686060;82;26447;-77
2020/12/14 10:58:44;;;;;;;42.27;22.02;;;;;;;3.63;81.25;100997.16;1690543;82;26455;-77
2020/12/14 11:01:12;;;;;;;36.20;20.92;;;;;;;3.66;81.39;100997.72;1663637;82;27334;-77
2020/12/14 11:03:39;;;;;;;35.70;19.70;;;;;;;3.67;81.32;100991.47;1688188;82;25919;-77
2020/12/14 11:06:06;;;;;;;33.15;19.73;;;;;;;3.71;81.34;100989.37;1689151;82;25856;-78
2020/12/14 11:08:34;;;;;;;35.58;19.48;;;;;;;3.73;81.20;100991.41;1693145;82;26381;-77
2020/12/14 11:11:01;;;;;;;34.53;20.50;;;;;;;3.74;81.09;100997.08;1716727;82;25732;-77
2020/12/14 11:13:29;;;;;;;34.53;18.30;;;;;;;3.74;81.22;100998.40;1692964;84;27337;-78
2020/12/14 11:15:59;;;;;;;33.95;18.40;;;;;;;3.77;81.11;101003.41;1687448;82;25977;-78
2020/12/14 11:18:26;;;;;;;35.33;18.82;;;;;;;3.79;81.02;101001.47;1686055;82;26521;-78
2020/12/14 11:20:53;;;;;;;34.38;18.55;;;;;;;3.80;80.86;101002.68;1698215;82;26285;-78
2020/12/14 11:23:20;;;;;;;34.45;18.90;;;;;;;3.80;80.90;101001.83;1690039;82;25821;-77
2020/12/14 11:25:48;;;;;;;40.15;22.50;;;;;;;3.81;80.90;101007.47;1693559;82;27558;-77
2020/12/14 11:28:15;;;;;;;36.55;20.80;;;;;;;3.83;80.91;101010.83;1686869;82;26471;-78
2020/12/14 11:30:42;;;;;;;36.95;19.25;;;;;;;3.86;80.85;101006.59;1690152;82;25722;-77